Time;durP1;ratioP1;P1;durP2;ratioP2;P2;SDS_P1;SDS_P2;PMS_P1;PMS_P2;Temp;Humidity;BMP_temperature;BMP_pressure;BME280_temperature;BME280_humidity;BME280_pressure;Samples;Min_cycle;Max_cycle;Signal;HPM_P1;HPM_P2
2022/12/05 00:00:54;;;;;;;0.60;0.60;;;;;;;;;;4994878;28;20290;-74
2022/12/05 00:03:21;;;;;;;1.50;1.23;;;;;;;;;;5010009;28;20268;-75
2022/12/05 00:05:48;;;;;;;0.60;0.60;;;;;;;;;;5010098;28;21006;-73
2022/12/05 00:08:16;;;;;;;0.60;0.60;;;;;;;;;;5012543;28;20567;-74
2022/12/05 00:10:43;;;;;;;0.60;0.60;;;;;;;;;;5027041;28;20206;-73
2022/12/05 00:13:11;;;;;;;0.70;0.60;;;;;;;;;;5012128;28;20214;-73
2022/12/05 00:15:40;;;;;;;0.75;0.75;;;;;;;;;;5025112;28;20197;-75
2022/12/05 00:18:07;;;;;;;0.60;0.60;;;;;;;;;;5009776;28;20274;-74
2022/12/05 00:20:33;;;;;;;0.60;0.60;;;;;;;;;;5025096;28;20200;-75
2022/12/05 00:23:00;;;;;;;0.65;0.60;;;;;;;;;;4974744;28;20215;-76
2022/12/05 00:25:27;;;;;;;0.90;0.90;;;;;;;;;;5024480;28;20204;-74
2022/12/05 00:27:55;;;;;;;0.60;0.60;;;;;;;;;;5012324;28;20294;-74
2022/12/05 00:30:21;;;;;;;0.60;0.60;;;;;;;;;;5027252;28;20504;-73
2022/12/05 00:32:50;;;;;;;0.60;0.60;;;;;;;;;;5012213;28;20220;-73
2022/12/05 00:35:16;;;;;;;0.90;0.90;;;;;;;;;;4984563;28;20210;-74
2022/12/05 00:37:44;;;;;;;0.70;0.65;;;;;;;;;;5002948;28;20198;-75
2022/12/05 00:44:05;;;;;;;2.10;1.90;;;;;;;;;;5014932;28;20238;-74
2022/12/05 00:46:33;;;;;;;0.60;0.60;;;;;;;;;;5029449;28;20206;-76
2022/12/05 00:49:02;;;;;;;1.15;1.05;;;;;;;;;;5001324;28;20233;-76
2022/12/05 00:51:29;;;;;;;0.60;0.60;;;;;;;;;;5030792;28;20201;-73
2022/12/05 00:53:57;;;;;;;1.23;1.17;;;;;;;;;;5015389;28;20218;-74
2022/12/05 00:56:24;;;;;;;0.67;0.67;;;;;;;;;;5010678;28;20298;-76
2022/12/05 00:58:52;;;;;;;0.60;0.60;;;;;;;;;;5013087;28;20453;-77
2022/12/05 01:01:20;;;;;;;0.60;0.60;;;;;;;;;;5003180;28;20621;-75
2022/12/05 01:03:47;;;;;;;1.88;1.77;;;;;;;;;;5003443;28;20911;-75
2022/12/05 01:06:15;;;;;;;0.60;0.60;;;;;;;;;;5029342;28;20254;-74
2022/12/05 01:08:42;;;;;;;0.60;0.60;;;;;;;;;;5013726;28;20290;-74
2022/12/05 01:11:10;;;;;;;0.60;0.60;;;;;;;;;;5015804;28;20203;-73
2022/12/05 01:13:37;;;;;;;0.70;0.70;;;;;;;;;;5015432;28;20265;-74
2022/12/05 01:16:04;;;;;;;0.70;0.70;;;;;;;;;;5014409;28;20191;-75
2022/12/05 01:18:31;;;;;;;0.60;0.60;;;;;;;;;;5028319;28;21078;-75
2022/12/05 01:20:58;;;;;;;0.70;0.60;;;;;;;;;;5007638;28;20248;-75
2022/12/05 01:23:26;;;;;;;0.85;0.85;;;;;;;;;;5015103;28;20744;-74
2022/12/05 01:25:53;;;;;;;0.60;0.60;;;;;;;;;;5028756;28;20340;-74
2022/12/05 01:28:19;;;;;;;0.60;0.60;;;;;;;;;;5029351;28;20202;-74
2022/12/05 01:30:47;;;;;;;1.00;1.00;;;;;;;;;;5012670;28;20280;-74
2022/12/05 01:33:14;;;;;;;0.60;0.50;;;;;;;;;;5028612;28;20235;-74
2022/12/05 01:35:41;;;;;;;0.63;0.60;;;;;;;;;;5026761;28;20249;-73
2022/12/05 01:38:09;;;;;;;0.60;0.60;;;;;;;;;;5010733;28;20215;-74
2022/12/05 01:40:37;;;;;;;0.60;0.60;;;;;;;;;;5011587;28;20199;-75
2022/12/05 01:43:09;;;;;;;0.60;0.60;;;;;;;;;;5029387;28;20204;-75
2022/12/05 01:45:37;;;;;;;0.60;0.60;;;;;;;;;;5027131;28;20196;-76
2022/12/05 01:48:04;;;;;;;0.60;0.50;;;;;;;;;;5012163;28;20230;-76
2022/12/05 01:50:31;;;;;;;0.60;0.60;;;;;;;;;;4989346;28;20819;-75
2022/12/05 01:52:59;;;;;;;0.60;0.50;;;;;;;;;;5011905;28;20226;-75
2022/12/05 01:55:25;;;;;;;0.60;0.60;;;;;;;;;;5003918;28;20201;-72
2022/12/05 01:57:55;;;;;;;0.60;0.60;;;;;;;;;;5027588;28;20643;-73
2022/12/05 02:00:22;;;;;;;0.82;0.82;;;;;;;;;;5028064;28;20592;-74
2022/12/05 02:02:51;;;;;;;0.60;0.60;;;;;;;;;;5011421;28;20219;-73
2022/12/05 02:05:20;;;;;;;0.60;0.60;;;;;;;;;;4987824;28;20603;-74
2022/12/05 02:07:46;;;;;;;0.75;0.75;;;;;;;;;;5029054;28;20207;-74
2022/12/05 02:10:14;;;;;;;0.85;0.80;;;;;;;;;;5029835;28;20678;-73
2022/12/05 02:12:42;;;;;;;0.68;0.60;;;;;;;;;;5011179;28;20219;-74
2022/12/05 02:15:21;;;;;;;0.60;0.60;;;;;;;;;;5025542;28;20204;-74
2022/12/05 02:17:57;;;;;;;0.60;0.60;;;;;;;;;;5012750;28;20218;-73
2022/12/05 02:20:36;;;;;;;0.70;0.70;;;;;;;;;;5011833;28;20221;-74
2022/12/05 02:23:25;;;;;;;0.60;0.60;;;;;;;;;;5027510;28;20212;-74
2022/12/05 02:26:12;;;;;;;0.70;0.70;;;;;;;;;;5000533;28;20210;-76
2022/12/05 02:28:52;;;;;;;0.60;0.60;;;;;;;;;;5013800;28;20256;-74
2022/12/05 02:31:27;;;;;;;0.65;0.65;;;;;;;;;;5001897;28;20564;-73
2022/12/05 02:34:01;;;;;;;0.60;0.50;;;;;;;;;;5010400;28;20705;-72
2022/12/05 02:36:39;;;;;;;0.60;0.60;;;;;;;;;;5001465;28;20205;-73
2022/12/05 02:39:13;;;;;;;0.60;0.60;;;;;;;;;;5003412;28;20215;-72
2022/12/05 02:41:47;;;;;;;0.60;0.60;;;;;;;;;;5027461;28;20209;-74
2022/12/05 02:44:22;;;;;;;0.73;0.73;;;;;;;;;;5011315;28;20229;-73
2022/12/05 02:46:53;;;;;;;0.60;0.60;;;;;;;;;;5025396;28;20185;-75
2022/12/05 02:49:28;;;;;;;0.60;0.60;;;;;;;;;;5011528;28;20182;-74
2022/12/05 02:52:01;;;;;;;0.60;0.60;;;;;;;;;;5027726;28;20195;-75
2022/12/05 02:54:32;;;;;;;1.45;1.13;;;;;;;;;;5026097;28;20207;-76
2022/12/05 02:57:01;;;;;;;0.60;0.60;;;;;;;;;;5027254;28;20673;-77
2022/12/05 02:59:29;;;;;;;0.60;0.60;;;;;;;;;;5027776;28;20201;-77
2022/12/05 03:02:00;;;;;;;0.60;0.60;;;;;;;;;;5003516;28;20330;-77
2022/12/05 03:04:30;;;;;;;0.60;0.60;;;;;;;;;;5025795;28;20210;-78
2022/12/05 03:07:02;;;;;;;0.60;0.50;;;;;;;;;;5026936;28;20221;-78
2022/12/05 03:09:34;;;;;;;0.60;0.60;;;;;;;;;;5013284;28;20200;-77
2022/12/05 03:12:07;;;;;;;0.60;0.50;;;;;;;;;;5028125;28;20210;-76
2022/12/05 03:14:36;;;;;;;0.60;0.50;;;;;;;;;;5028316;28;20187;-78
2022/12/05 03:17:09;;;;;;;0.60;0.60;;;;;;;;;;5011014;28;20593;-78
2022/12/05 03:19:43;;;;;;;1.05;0.82;;;;;;;;;;5026443;28;20201;-77
2022/12/05 03:22:14;;;;;;;0.60;0.60;;;;;;;;;;5002262;28;20214;-79
2022/12/05 03:24:43;;;;;;;0.60;0.60;;;;;;;;;;5002809;28;20274;-77
2022/12/05 03:27:15;;;;;;;0.60;0.60;;;;;;;;;;5027645;28;20195;-77
2022/12/05 03:29:46;;;;;;;0.70;0.70;;;;;;;;;;5026982;28;20572;-77
2022/12/05 03:32:19;;;;;;;0.60;0.50;;;;;;;;;;5010462;28;20207;-77
2022/12/05 03:34:52;;;;;;;0.60;0.60;;;;;;;;;;5005161;28;20245;-78
2022/12/05 03:37:26;;;;;;;0.90;0.90;;;;;;;;;;5026639;28;20312;-79
2022/12/05 03:40:04;;;;;;;0.60;0.60;;;;;;;;;;5024587;28;20221;-77
2022/12/05 03:42:34;;;;;;;0.60;0.60;;;;;;;;;;5006110;28;20722;-78
2022/12/05 03:45:06;;;;;;;0.60;0.50;;;;;;;;;;4992598;28;20203;-77
2022/12/05 03:47:42;;;;;;;0.60;0.50;;;;;;;;;;5005392;28;20223;-77
2022/12/05 03:50:13;;;;;;;0.60;0.60;;;;;;;;;;5011390;28;20685;-78
2022/12/05 03:52:44;;;;;;;0.60;0.60;;;;;;;;;;5011442;28;20215;-76
2022/12/05 03:55:32;;;;;;;0.60;0.52;;;;;;;;;;5010970;28;20535;-77
2022/12/05 03:58:01;;;;;;;0.60;0.60;;;;;;;;;;5025716;28;20229;-78
2022/12/05 04:00:31;;;;;;;0.60;0.50;;;;;;;;;;4999607;28;20215;-77
2022/12/05 04:03:03;;;;;;;0.60;0.60;;;;;;;;;;5010168;28;20215;-79
2022/12/05 04:05:31;;;;;;;0.60;0.60;;;;;;;;;;5010961;28;20198;-80
2022/12/05 04:08:00;;;;;;;0.60;0.60;;;;;;;;;;5026929;28;20201;-80
2022/12/05 04:10:28;;;;;;;0.60;0.50;;;;;;;;;;5026343;28;20214;-79
2022/12/05 04:12:57;;;;;;;0.60;0.60;;;;;;;;;;5027203;28;20576;-78
2022/12/05 04:15:24;;;;;;;0.60;0.60;;;;;;;;;;5021736;28;20289;-80
2022/12/05 04:17:52;;;;;;;2.65;1.67;;;;;;;;;;5025430;28;20217;-79
2022/12/05 04:23:09;;;;;;;0.60;0.60;;;;;;;;;;5026578;28;20205;-78
2022/12/05 04:25:41;;;;;;;0.70;0.70;;;;;;;;;;4994266;28;20207;-79
2022/12/05 04:28:13;;;;;;;0.60;0.60;;;;;;;;;;5000814;28;20200;-79
2022/12/05 04:30:48;;;;;;;0.60;0.60;;;;;;;;;;5012637;28;20273;-79
2022/12/05 04:33:16;;;;;;;0.60;0.60;;;;;;;;;;5027382;28;20562;-78
2022/12/05 04:35:46;;;;;;;0.60;0.50;;;;;;;;;;5009644;28;20281;-78
2022/12/05 04:38:16;;;;;;;0.60;0.50;;;;;;;;;;5001193;28;20225;-79
2022/12/05 04:40:43;;;;;;;0.60;0.60;;;;;;;;;;5028076;28;20195;-79
2022/12/05 04:43:11;;;;;;;0.70;0.70;;;;;;;;;;5009571;28;20211;-79
2022/12/05 04:45:39;;;;;;;0.60;0.60;;;;;;;;;;5009105;28;20202;-79
2022/12/05 04:48:09;;;;;;;0.60;0.50;;;;;;;;;;5001465;28;20237;-80
2022/12/05 04:50:37;;;;;;;0.60;0.60;;;;;;;;;;4991447;28;20714;-79
2022/12/05 04:53:07;;;;;;;0.60;0.60;;;;;;;;;;4987617;28;20226;-78
2022/12/05 04:55:38;;;;;;;0.60;0.60;;;;;;;;;;5003417;28;20515;-79
2022/12/05 04:58:06;;;;;;;0.60;0.50;;;;;;;;;;5010633;28;20693;-78
2022/12/05 05:00:38;;;;;;;0.60;0.50;;;;;;;;;;5012193;28;20281;-77
2022/12/05 05:03:07;;;;;;;0.60;0.60;;;;;;;;;;5022835;28;20773;-80
2022/12/05 05:05:34;;;;;;;0.60;0.60;;;;;;;;;;5010127;28;20202;-79
2022/12/05 05:08:01;;;;;;;0.60;0.60;;;;;;;;;;5025666;28;20203;-78
2022/12/05 05:10:32;;;;;;;0.60;0.60;;;;;;;;;;5027190;28;20294;-78
2022/12/05 05:12:58;;;;;;;0.60;0.50;;;;;;;;;;5020566;28;20211;-78
2022/12/05 05:15:25;;;;;;;0.70;0.70;;;;;;;;;;5023925;28;20202;-77
2022/12/05 05:17:51;;;;;;;0.60;0.60;;;;;;;;;;5009683;28;20710;-78
2022/12/05 05:20:25;;;;;;;0.60;0.57;;;;;;;;;;5010791;28;20739;-78
2022/12/05 05:22:53;;;;;;;0.60;0.60;;;;;;;;;;5026212;28;20662;-80
2022/12/05 05:25:19;;;;;;;0.60;0.60;;;;;;;;;;5014281;28;20206;-80
2022/12/05 05:27:49;;;;;;;0.60;0.50;;;;;;;;;;5028208;28;20199;-79
2022/12/05 05:30:16;;;;;;;0.60;0.50;;;;;;;;;;5010879;28;20219;-80
2022/12/05 05:32:43;;;;;;;0.60;0.60;;;;;;;;;;5015004;28;20219;-80
2022/12/05 05:35:10;;;;;;;0.60;0.50;;;;;;;;;;5012727;28;20211;-80
2022/12/05 05:37:37;;;;;;;0.60;0.60;;;;;;;;;;5004114;28;20553;-80
2022/12/05 05:40:06;;;;;;;1.50;1.40;;;;;;;;;;5012085;28;20571;-80
2022/12/05 05:42:40;;;;;;;0.70;0.70;;;;;;;;;;5000854;28;20206;-79
2022/12/05 05:45:09;;;;;;;0.60;0.60;;;;;;;;;;5026411;28;20656;-78
2022/12/05 05:47:36;;;;;;;0.60;0.55;;;;;;;;;;5026895;28;20272;-79
2022/12/05 05:50:03;;;;;;;0.70;0.70;;;;;;;;;;5028827;28;20202;-78
2022/12/05 05:52:31;;;;;;;0.60;0.50;;;;;;;;;;5013019;28;20207;-78
2022/12/05 05:54:57;;;;;;;0.60;0.60;;;;;;;;;;5027779;28;20225;-80
2022/12/05 05:57:24;;;;;;;0.60;0.50;;;;;;;;;;5026865;28;20195;-78
2022/12/05 05:59:51;;;;;;;0.60;0.50;;;;;;;;;;5013690;28;20195;-78
2022/12/05 06:02:19;;;;;;;0.60;0.50;;;;;;;;;;4988603;28;20302;-78
2022/12/05 06:04:46;;;;;;;0.60;0.50;;;;;;;;;;5029372;28;20187;-79
2022/12/05 06:07:12;;;;;;;0.60;0.60;;;;;;;;;;5013332;28;20203;-80
2022/12/05 06:09:39;;;;;;;0.60;0.60;;;;;;;;;;5005698;28;20199;-79
2022/12/05 06:12:06;;;;;;;0.60;0.50;;;;;;;;;;5013755;28;20215;-80
2022/12/05 06:14:33;;;;;;;0.60;0.60;;;;;;;;;;5014766;28;20210;-78
2022/12/05 06:16:59;;;;;;;0.60;0.50;;;;;;;;;;5024513;28;20206;-79
2022/12/05 06:19:27;;;;;;;0.60;0.60;;;;;;;;;;5011962;28;20203;-79
2022/12/05 06:21:54;;;;;;;0.70;0.60;;;;;;;;;;5002361;28;20202;-78
2022/12/05 06:24:20;;;;;;;0.60;0.60;;;;;;;;;;5013820;28;20198;-78
2022/12/05 06:26:47;;;;;;;0.60;0.60;;;;;;;;;;5013694;28;20195;-78
2022/12/05 06:29:14;;;;;;;0.60;0.60;;;;;;;;;;5004824;28;20245;-78
2022/12/05 06:31:41;;;;;;;0.60;0.50;;;;;;;;;;5029220;28;20202;-78
2022/12/05 06:34:09;;;;;;;0.60;0.60;;;;;;;;;;5013217;28;20210;-78
2022/12/05 06:36:37;;;;;;;0.60;0.60;;;;;;;;;;5010165;28;20711;-78
2022/12/05 06:39:05;;;;;;;0.60;0.60;;;;;;;;;;5011587;28;20211;-80
2022/12/05 06:41:32;;;;;;;0.60;0.60;;;;;;;;;;5028678;28;20249;-78
2022/12/05 06:43:59;;;;;;;0.60;0.60;;;;;;;;;;5029043;28;20244;-79
2022/12/05 06:46:28;;;;;;;0.60;0.50;;;;;;;;;;5028961;28;20227;-79
2022/12/05 06:48:56;;;;;;;0.60;0.50;;;;;;;;;;5028471;28;20309;-79
2022/12/05 06:51:24;;;;;;;0.60;0.50;;;;;;;;;;5004923;28;20552;-79
2022/12/05 06:53:52;;;;;;;0.60;0.60;;;;;;;;;;5000693;28;20222;-79
2022/12/05 06:56:19;;;;;;;0.60;0.60;;;;;;;;;;5026734;28;20199;-79
2022/12/05 06:58:47;;;;;;;0.60;0.50;;;;;;;;;;5012317;28;20551;-78
2022/12/05 07:04:00;;;;;;;0.60;0.60;;;;;;;;;;5027923;28;20272;-78
2022/12/05 07:06:28;;;;;;;0.60;0.50;;;;;;;;;;5002001;28;20250;-76
2022/12/05 07:08:55;;;;;;;0.60;0.52;;;;;;;;;;4986557;28;20739;-77
2022/12/05 07:11:27;;;;;;;0.60;0.50;;;;;;;;;;4990421;28;20252;-77
2022/12/05 07:13:54;;;;;;;0.60;0.60;;;;;;;;;;4998056;28;20211;-77
2022/12/05 07:16:22;;;;;;;0.60;0.60;;;;;;;;;;5000610;28;20301;-78
2022/12/05 07:18:49;;;;;;;1.05;0.98;;;;;;;;;;5010383;28;20309;-78
2022/12/05 07:21:16;;;;;;;0.60;0.60;;;;;;;;;;5010521;28;20601;-77
2022/12/05 07:23:44;;;;;;;0.60;0.60;;;;;;;;;;5012245;28;20674;-78
2022/12/05 07:26:13;;;;;;;0.60;0.50;;;;;;;;;;5002797;28;20227;-77
2022/12/05 07:28:40;;;;;;;0.60;0.50;;;;;;;;;;5027133;28;20294;-78
2022/12/05 07:31:07;;;;;;;0.70;0.60;;;;;;;;;;4982961;28;20202;-78
2022/12/05 07:33:34;;;;;;;0.60;0.60;;;;;;;;;;4999023;28;20222;-78
2022/12/05 07:36:01;;;;;;;0.60;0.60;;;;;;;;;;5027267;28;20206;-78
2022/12/05 07:38:28;;;;;;;0.60;0.60;;;;;;;;;;5002444;28;20671;-78
2022/12/05 07:40:55;;;;;;;0.70;0.70;;;;;;;;;;5026277;28;20593;-78
2022/12/05 07:43:23;;;;;;;0.60;0.52;;;;;;;;;;4999254;28;20293;-78
2022/12/05 07:45:51;;;;;;;0.60;0.50;;;;;;;;;;5009820;28;20556;-78
2022/12/05 07:48:17;;;;;;;0.60;0.50;;;;;;;;;;5026872;28;20236;-77
2022/12/05 07:50:44;;;;;;;0.60;0.50;;;;;;;;;;5002755;28;20277;-78
2022/12/05 07:53:11;;;;;;;1.58;1.48;;;;;;;;;;5027347;28;20222;-78
2022/12/05 07:55:38;;;;;;;0.60;0.60;;;;;;;;;;5009552;28;20254;-78
2022/12/05 07:58:07;;;;;;;1.45;1.35;;;;;;;;;;5012204;28;20222;-78
2022/12/05 08:00:36;;;;;;;0.60;0.50;;;;;;;;;;5026746;28;20191;-76
2022/12/05 08:03:03;;;;;;;0.60;0.50;;;;;;;;;;5003723;28;20280;-79
2022/12/05 08:05:32;;;;;;;0.60;0.60;;;;;;;;;;5024825;28;20202;-78
2022/12/05 08:07:59;;;;;;;0.60;0.60;;;;;;;;;;5027116;28;20682;-78
2022/12/05 08:10:26;;;;;;;0.80;0.80;;;;;;;;;;5025337;28;20195;-77
2022/12/05 08:12:53;;;;;;;0.60;0.50;;;;;;;;;;5009807;28;20209;-77
2022/12/05 08:15:20;;;;;;;0.80;0.80;;;;;;;;;;5027537;28;20637;-77
2022/12/05 08:17:49;;;;;;;0.60;0.60;;;;;;;;;;5011672;28;20217;-77
2022/12/05 08:20:16;;;;;;;0.60;0.50;;;;;;;;;;5008879;28;20197;-77
2022/12/05 08:22:43;;;;;;;0.70;0.70;;;;;;;;;;5011036;28;20209;-78
2022/12/05 08:25:10;;;;;;;0.60;0.50;;;;;;;;;;5010732;28;20611;-78
2022/12/05 08:27:37;;;;;;;0.60;0.50;;;;;;;;;;5012234;28;20249;-77
2022/12/05 08:30:05;;;;;;;0.88;0.75;;;;;;;;;;5009137;28;20337;-78
2022/12/05 08:32:31;;;;;;;0.60;0.50;;;;;;;;;;5009974;28;20230;-77
2022/12/05 08:34:59;;;;;;;0.60;0.50;;;;;;;;;;5009812;28;20223;-75
2022/12/05 08:37:26;;;;;;;0.60;0.60;;;;;;;;;;5026976;28;20206;-75
2022/12/05 08:39:53;;;;;;;1.67;1.02;;;;;;;;;;4984846;28;20221;-77
2022/12/05 08:42:20;;;;;;;0.60;0.60;;;;;;;;;;5009802;28;20720;-77
2022/12/05 08:44:49;;;;;;;0.80;0.80;;;;;;;;;;5005303;28;20297;-75
2022/12/05 08:47:16;;;;;;;0.90;0.90;;;;;;;;;;5010907;28;20250;-76
2022/12/05 08:49:43;;;;;;;0.70;0.70;;;;;;;;;;5001438;28;20203;-75
2022/12/05 08:52:11;;;;;;;0.60;0.60;;;;;;;;;;5025180;28;20692;-76
2022/12/05 08:54:39;;;;;;;0.60;0.50;;;;;;;;;;5026190;28;20282;-77
2022/12/05 08:57:05;;;;;;;1.13;1.13;;;;;;;;;;5011924;28;20221;-76
2022/12/05 08:59:34;;;;;;;0.60;0.60;;;;;;;;;;5012686;28;20258;-77
2022/12/05 09:02:01;;;;;;;0.60;0.60;;;;;;;;;;5013728;28;20206;-78
2022/12/05 09:04:28;;;;;;;0.60;0.50;;;;;;;;;;5002517;28;20192;-76
2022/12/05 09:06:56;;;;;;;0.98;0.93;;;;;;;;;;5028813;28;20225;-78
2022/12/05 09:09:24;;;;;;;0.60;0.50;;;;;;;;;;5029132;28;20203;-77
2022/12/05 09:11:50;;;;;;;0.60;0.50;;;;;;;;;;5029780;28;20234;-77
2022/12/05 09:14:18;;;;;;;0.93;0.88;;;;;;;;;;5015370;28;20203;-77
2022/12/05 09:16:46;;;;;;;0.60;0.50;;;;;;;;;;5015440;28;20987;-78
2022/12/05 09:19:14;;;;;;;0.70;0.70;;;;;;;;;;5014409;28;20578;-76
2022/12/05 09:21:43;;;;;;;0.60;0.50;;;;;;;;;;5003399;28;20385;-77
2022/12/05 09:24:11;;;;;;;0.60;0.60;;;;;;;;;;5005215;28;20715;-76
2022/12/05 09:26:40;;;;;;;0.60;0.50;;;;;;;;;;5026804;28;20542;-77
2022/12/05 09:29:07;;;;;;;0.60;0.60;;;;;;;;;;5024900;28;20191;-77
2022/12/05 09:31:41;;;;;;;0.60;0.50;;;;;;;;;;4989033;28;20291;-76
2022/12/05 09:34:09;;;;;;;0.60;0.50;;;;;;;;;;5014957;28;20215;-77
2022/12/05 09:36:36;;;;;;;0.60;0.60;;;;;;;;;;5011831;28;20249;-76
2022/12/05 09:39:04;;;;;;;0.60;0.50;;;;;;;;;;5026234;28;20734;-76
2022/12/05 09:42:03;;;;;;;0.60;0.50;;;;;;;;;;4979590;28;20227;-77
2022/12/05 09:44:38;;;;;;;0.70;0.70;;;;;;;;;;5008896;28;20203;-77
2022/12/05 09:47:10;;;;;;;0.60;0.50;;;;;;;;;;5005102;28;20667;-77
2022/12/05 09:49:41;;;;;;;0.60;0.50;;;;;;;;;;5012896;28;20241;-76
2022/12/05 09:52:10;;;;;;;0.60;0.50;;;;;;;;;;5012644;28;20200;-76
2022/12/05 09:54:36;;;;;;;0.95;0.95;;;;;;;;;;5014626;28;20301;-77
2022/12/05 09:57:08;;;;;;;0.70;0.70;;;;;;;;;;5029973;28;20261;-78
2022/12/05 09:59:35;;;;;;;0.60;0.50;;;;;;;;;;5000299;28;20299;-77
2022/12/05 10:02:06;;;;;;;0.60;0.50;;;;;;;;;;5011743;28;20569;-78
2022/12/05 10:04:44;;;;;;;0.60;0.60;;;;;;;;;;5026215;28;20223;-76
2022/12/05 10:07:14;;;;;;;0.60;0.60;;;;;;;;;;5013295;28;20289;-75
2022/12/05 10:09:47;;;;;;;0.60;0.60;;;;;;;;;;5000412;28;20200;-78
2022/12/05 10:12:22;;;;;;;0.60;0.60;;;;;;;;;;5027650;28;20203;-77
2022/12/05 10:14:53;;;;;;;0.60;0.60;;;;;;;;;;5027091;28;20239;-77
2022/12/05 10:17:23;;;;;;;0.60;0.60;;;;;;;;;;5011895;28;20207;-77
2022/12/05 10:19:51;;;;;;;0.60;0.60;;;;;;;;;;5028778;28;20611;-76
2022/12/05 10:22:21;;;;;;;0.60;0.60;;;;;;;;;;5010755;28;20197;-77
2022/12/05 10:24:50;;;;;;;0.60;0.60;;;;;;;;;;5010637;28;20187;-78
2022/12/05 10:27:20;;;;;;;0.60;0.60;;;;;;;;;;5028717;28;20242;-77
2022/12/05 10:29:49;;;;;;;0.60;0.50;;;;;;;;;;4999400;28;20732;-78
2022/12/05 10:32:18;;;;;;;0.75;0.75;;;;;;;;;;5006058;28;20215;-77
2022/12/05 10:34:45;;;;;;;0.60;0.60;;;;;;;;;;5027830;28;20679;-77
2022/12/05 10:37:14;;;;;;;0.73;0.73;;;;;;;;;;5013763;28;20620;-77
2022/12/05 10:39:41;;;;;;;0.60;0.60;;;;;;;;;;5012241;28;20691;-77
2022/12/05 10:42:10;;;;;;;0.60;0.60;;;;;;;;;;5008265;28;20209;-77
2022/12/05 10:44:39;;;;;;;0.60;0.60;;;;;;;;;;5026372;28;20682;-78
2022/12/05 10:47:05;;;;;;;0.60;0.60;;;;;;;;;;4998465;28;20199;-78
2022/12/05 10:49:33;;;;;;;0.60;0.60;;;;;;;;;;5026403;28;20368;-78
2022/12/05 10:52:01;;;;;;;0.60;0.60;;;;;;;;;;5008982;28;20454;-78
2022/12/05 10:54:31;;;;;;;0.60;0.60;;;;;;;;;;5012268;28;20214;-74
2022/12/05 10:56:59;;;;;;;0.60;0.50;;;;;;;;;;5004849;28;20574;-78
2022/12/05 10:59:43;;;;;;;0.70;0.70;;;;;;;;;;5005809;28;20265;-77
2022/12/05 11:02:18;;;;;;;0.60;0.60;;;;;;;;;;4998775;28;20202;-75
2022/12/05 11:04:45;;;;;;;0.60;0.50;;;;;;;;;;5023744;28;20434;-76
2022/12/05 11:07:22;;;;;;;0.60;0.60;;;;;;;;;;5009867;28;20840;-76
2022/12/05 11:09:48;;;;;;;0.68;0.68;;;;;;;;;;5027875;28;20245;-77
2022/12/05 11:12:18;;;;;;;0.60;0.60;;;;;;;;;;5024465;28;20200;-78
2022/12/05 11:14:52;;;;;;;1.53;1.43;;;;;;;;;;4999743;28;20203;-77
2022/12/05 11:17:24;;;;;;;0.60;0.60;;;;;;;;;;5004063;28;20469;-76
2022/12/05 11:19:51;;;;;;;0.60;0.60;;;;;;;;;;5026619;28;20446;-75
2022/12/05 11:22:17;;;;;;;1.23;1.13;;;;;;;;;;5026478;28;20294;-77
2022/12/05 11:24:44;;;;;;;0.60;0.60;;;;;;;;;;5011410;28;20268;-78
2022/12/05 11:27:20;;;;;;;0.60;0.60;;;;;;;;;;4994122;28;20435;-76
2022/12/05 11:29:58;;;;;;;0.60;0.60;;;;;;;;;;5027048;28;20266;-75
2022/12/05 11:32:29;;;;;;;0.90;0.90;;;;;;;;;;5008774;28;20227;-76
2022/12/05 11:35:06;;;;;;;1.20;1.10;;;;;;;;;;5024940;28;20237;-76
2022/12/05 11:37:37;;;;;;;0.60;0.60;;;;;;;;;;5011463;28;20442;-76
2022/12/05 11:40:12;;;;;;;0.60;0.60;;;;;;;;;;5026144;28;21102;-75
2022/12/05 11:42:42;;;;;;;1.00;1.00;;;;;;;;;;5024235;28;20436;-75
2022/12/05 11:45:17;;;;;;;0.60;0.60;;;;;;;;;;5008823;28;20485;-75
2022/12/05 11:47:54;;;;;;;0.60;0.60;;;;;;;;;;5012397;28;20949;-75
2022/12/05 11:50:27;;;;;;;0.60;0.60;;;;;;;;;;5010417;28;20484;-75
2022/12/05 11:52:58;;;;;;;1.30;1.20;;;;;;;;;;5023961;28;20207;-75
2022/12/05 11:55:29;;;;;;;0.60;0.60;;;;;;;;;;5012522;28;20211;-77
2022/12/05 11:58:21;;;;;;;1.83;1.50;;;;;;;;;;5003949;28;20192;-76
2022/12/05 12:00:55;;;;;;;0.60;0.60;;;;;;;;;;5025030;28;20241;-77
2022/12/05 12:03:42;;;;;;;0.60;0.60;;;;;;;;;;5025609;28;20269;-75
2022/12/05 12:06:24;;;;;;;0.60;0.60;;;;;;;;;;5026120;28;20266;-78
2022/12/05 12:08:56;;;;;;;0.60;0.60;;;;;;;;;;5024747;28;20198;-78
2022/12/05 12:11:27;;;;;;;0.60;0.60;;;;;;;;;;5003163;28;20195;-77
2022/12/05 12:13:58;;;;;;;2.10;1.23;;;;;;;;;;5026356;28;20253;-76
2022/12/05 12:16:30;;;;;;;2.13;2.03;;;;;;;;;;5011076;28;20516;-75
2022/12/05 12:19:05;;;;;;;0.60;0.60;;;;;;;;;;5026490;28;20560;-76
2022/12/05 12:21:38;;;;;;;0.60;0.60;;;;;;;;;;5010597;28;20551;-76
2022/12/05 12:24:09;;;;;;;1.25;1.17;;;;;;;;;;5023577;28;20207;-76
2022/12/05 12:26:43;;;;;;;0.93;0.93;;;;;;;;;;5009846;28;20337;-77
2022/12/05 12:29:13;;;;;;;0.60;0.60;;;;;;;;;;5022361;28;20659;-77
2022/12/05 12:31:47;;;;;;;0.90;0.80;;;;;;;;;;5010494;28;20206;-78
2022/12/05 12:34:23;;;;;;;0.60;0.60;;;;;;;;;;5011938;28;20475;-78
2022/12/05 12:36:53;;;;;;;0.60;0.50;;;;;;;;;;5004471;28;20469;-75
2022/12/05 12:39:25;;;;;;;1.23;1.10;;;;;;;;;;5009662;28;20453;-75
2022/12/05 12:41:59;;;;;;;0.60;0.60;;;;;;;;;;5009506;28;20577;-78
2022/12/05 12:44:46;;;;;;;0.60;0.50;;;;;;;;;;4993586;28;20466;-77
2022/12/05 12:47:16;;;;;;;0.60;0.60;;;;;;;;;;5026668;28;21279;-78
2022/12/05 12:49:52;;;;;;;0.65;0.65;;;;;;;;;;5007254;28;20257;-79
2022/12/05 12:52:21;;;;;;;0.60;0.60;;;;;;;;;;5024755;28;20261;-77
2022/12/05 12:54:57;;;;;;;0.70;0.70;;;;;;;;;;5011473;28;20434;-78
2022/12/05 12:57:38;;;;;;;0.60;0.60;;;;;;;;;;5009429;28;20468;-77
2022/12/05 13:00:11;;;;;;;0.60;0.50;;;;;;;;;;5009801;28;20461;-78
2022/12/05 13:02:43;;;;;;;0.60;0.60;;;;;;;;;;5010320;28;20451;-78
2022/12/05 13:05:19;;;;;;;0.60;0.60;;;;;;;;;;5008528;28;20718;-75
2022/12/05 13:07:50;;;;;;;0.60;0.60;;;;;;;;;;5021305;28;20208;-77
2022/12/05 13:10:22;;;;;;;0.60;0.60;;;;;;;;;;5024579;28;20195;-75
2022/12/05 13:12:50;;;;;;;0.60;0.60;;;;;;;;;;5025600;28;20207;-75
2022/12/05 13:15:18;;;;;;;0.60;0.60;;;;;;;;;;5011835;28;20194;-79
2022/12/05 13:17:46;;;;;;;0.60;0.60;;;;;;;;;;5024582;28;20232;-79
2022/12/05 13:20:15;;;;;;;0.70;0.70;;;;;;;;;;5026148;28;20198;-76
2022/12/05 13:22:43;;;;;;;0.60;0.60;;;;;;;;;;5026371;28;20227;-78
2022/12/05 13:25:13;;;;;;;0.60;0.60;;;;;;;;;;5025116;28;20210;-77
2022/12/05 13:27:52;;;;;;;0.60;0.60;;;;;;;;;;5024968;28;20202;-78
2022/12/05 13:30:19;;;;;;;0.60;0.60;;;;;;;;;;5022512;28;20487;-78
2022/12/05 13:32:53;;;;;;;0.60;0.60;;;;;;;;;;5003560;28;20259;-75
2022/12/05 13:44:10;;;;;;;0.60;0.60;;;;;;;;;;5011728;28;20225;-75
2022/12/05 13:46:38;;;;;;;0.60;0.60;;;;;;;;;;5012386;28;20191;-75
2022/12/05 13:49:07;;;;;;;0.60;0.60;;;;;;;;;;5028996;28;20224;-75
2022/12/05 13:51:41;;;;;;;0.80;0.80;;;;;;;;;;5026275;28;20196;-76
2022/12/05 13:54:18;;;;;;;1.13;1.02;;;;;;;;;;5027265;28;20293;-76
2022/12/05 13:56:47;;;;;;;1.60;1.30;;;;;;;;;;5030100;28;20763;-76
2022/12/05 13:59:29;;;;;;;0.85;0.85;;;;;;;;;;5013709;28;20222;-75
2022/12/05 14:01:56;;;;;;;6.45;2.25;;;;;;;;;;5028348;28;20279;-76
2022/12/05 14:04:46;;;;;;;0.70;0.70;;;;;;;;;;5027561;28;20213;-77
2022/12/05 14:07:33;;;;;;;0.60;0.60;;;;;;;;;;5028895;28;20195;-77
2022/12/05 14:10:03;;;;;;;0.60;0.60;;;;;;;;;;5024916;28;20238;-77
2022/12/05 14:12:44;;;;;;;2.17;1.40;;;;;;;;;;5011221;28;20282;-75
2022/12/05 14:15:26;;;;;;;0.60;0.60;;;;;;;;;;5012913;28;20186;-77
2022/12/05 14:17:59;;;;;;;0.60;0.60;;;;;;;;;;5011316;28;20214;-77
2022/12/05 14:20:33;;;;;;;0.60;0.60;;;;;;;;;;5011907;28;20663;-77
2022/12/05 14:23:07;;;;;;;0.60;0.50;;;;;;;;;;5010664;28;20203;-78
2022/12/05 14:25:49;;;;;;;0.60;0.55;;;;;;;;;;5011399;28;20210;-77
2022/12/05 14:28:42;;;;;;;0.60;0.60;;;;;;;;;;5004585;28;20194;-77
2022/12/05 14:31:19;;;;;;;0.60;0.60;;;;;;;;;;5027753;28;20301;-77
2022/12/05 14:34:02;;;;;;;0.60;0.60;;;;;;;;;;5028402;28;20801;-77
2022/12/05 14:36:30;;;;;;;0.60;0.60;;;;;;;;;;5027418;28;20256;-78
2022/12/05 14:38:57;;;;;;;0.60;0.60;;;;;;;;;;4989229;28;20203;-77
2022/12/05 14:41:29;;;;;;;0.60;0.50;;;;;;;;;;5013610;28;20223;-78
2022/12/05 14:43:55;;;;;;;0.80;0.80;;;;;;;;;;5024656;28;20196;-79
2022/12/05 14:46:24;;;;;;;0.75;0.73;;;;;;;;;;5008157;28;20194;-75
2022/12/05 14:48:53;;;;;;;0.60;0.60;;;;;;;;;;5011879;28;20230;-77
2022/12/05 14:51:42;;;;;;;0.60;0.60;;;;;;;;;;5013054;28;20202;-77
2022/12/05 14:54:11;;;;;;;0.60;0.50;;;;;;;;;;5011689;28;20252;-78
2022/12/05 14:56:41;;;;;;;0.60;0.50;;;;;;;;;;5005622;28;20237;-77
2022/12/05 14:59:16;;;;;;;0.60;0.60;;;;;;;;;;5013599;28;20191;-77
2022/12/05 15:01:47;;;;;;;0.63;0.60;;;;;;;;;;5011067;28;20589;-78
2022/12/05 15:04:16;;;;;;;0.60;0.60;;;;;;;;;;5010797;28;20249;-78
2022/12/05 15:06:46;;;;;;;0.60;0.52;;;;;;;;;;5002296;28;20707;-77
2022/12/05 15:09:32;;;;;;;0.60;0.60;;;;;;;;;;5026579;28;20297;-77
2022/12/05 15:12:10;;;;;;;0.60;0.60;;;;;;;;;;5005972;28;20195;-75
2022/12/05 15:14:47;;;;;;;0.60;0.50;;;;;;;;;;5025853;28;20308;-76
2022/12/05 15:17:17;;;;;;;0.60;0.60;;;;;;;;;;5028638;28;20232;-76
2022/12/05 15:19:49;;;;;;;0.60;0.60;;;;;;;;;;5012573;28;20272;-77